createdAt,value
2019-05-22T00:05:43.392Z,961.5
2019-05-22T00:15:46.843Z,961.4
2019-05-22T00:25:50.264Z,961.2
2019-05-22T00:35:53.708Z,961.5
2019-05-22T00:45:57.145Z,961.5
2019-05-22T00:56:00.576Z,961.3
2019-05-22T01:06:04.043Z,961.4
2019-05-22T01:16:07.495Z,961.4
2019-05-22T01:26:10.941Z,961.5
2019-05-22T01:36:14.398Z,961.6
2019-05-22T01:46:17.851Z,961.7
2019-05-22T01:56:21.329Z,961.7
2019-05-22T02:06:24.781Z,961.7
2019-05-22T02:16:28.256Z,961.6
2019-05-22T02:26:31.807Z,961.7
2019-05-22T02:36:35.293Z,961.7
2019-05-22T02:46:38.830Z,961.8
2019-05-22T02:56:42.349Z,961.8
2019-05-22T03:06:45.825Z,961.9
2019-05-22T03:16:49.373Z,961.8
2019-05-22T03:26:52.908Z,961.9
2019-05-22T03:36:56.418Z,962
2019-05-22T03:47:00.041Z,962
2019-05-22T03:57:03.520Z,962.2
2019-05-22T04:07:06.971Z,962.3
2019-05-22T04:17:10.495Z,962
2019-05-22T04:27:13.992Z,962.1
2019-05-22T04:37:17.459Z,962.1
2019-05-22T04:47:20.955Z,962.3
2019-05-22T04:57:24.411Z,962.4
2019-05-22T05:07:27.869Z,962.4
2019-05-22T05:17:31.313Z,962.3
2019-05-22T05:27:34.783Z,962.3
2019-05-22T05:37:38.201Z,962.3
2019-05-22T05:47:41.701Z,962.3
2019-05-22T05:57:45.155Z,962.3
2019-05-22T06:07:48.579Z,962.4
2019-05-22T06:17:52.054Z,962.6
2019-05-22T06:27:55.542Z,962.9
2019-05-22T06:37:58.984Z,962.8
2019-05-22T06:48:02.416Z,962.7
2019-05-22T06:58:05.896Z,962.5
2019-05-22T07:08:09.385Z,962.3
2019-05-22T07:18:13.910Z,961.8
2019-05-22T07:28:17.385Z,961.6
2019-05-22T07:38:20.840Z,968.6
2019-05-22T07:48:24.307Z,968.1
2019-05-22T07:58:27.757Z,966.9
2019-05-22T08:08:31.239Z,963.5
2019-05-22T08:18:34.727Z,962.3
2019-05-22T08:28:38.232Z,969.2
2019-05-22T08:38:41.812Z,968.8
2019-05-22T08:48:49.905Z,968.5
2019-05-22T08:58:53.340Z,967.8
2019-05-22T09:08:56.810Z,968
2019-05-22T09:19:00.300Z,968.1
2019-05-22T09:29:03.808Z,967.5
2019-05-22T09:39:07.275Z,968.2
2019-05-22T09:49:10.735Z,967
2019-05-22T09:59:14.157Z,966.6
2019-05-22T10:09:17.601Z,967.4
2019-05-22T10:19:21.061Z,966.6
2019-05-22T10:29:24.525Z,966.1
2019-05-22T10:39:27.966Z,967
2019-05-22T10:49:31.639Z,966.3
2019-05-22T10:59:35.210Z,965.6
2019-05-22T11:09:38.697Z,965.6
2019-05-22T11:19:42.136Z,965.7
2019-05-22T11:29:45.665Z,965.5
2019-05-22T11:39:49.204Z,965.4
2019-05-22T11:49:52.668Z,965.2
2019-05-22T11:59:56.119Z,965.7
2019-05-22T12:09:59.565Z,964.3
2019-05-22T12:20:03.174Z,964.4
2019-05-22T12:30:06.644Z,964.6
2019-05-22T12:40:10.107Z,964.9
2019-05-22T12:50:13.552Z,964.7
2019-05-22T13:00:17.003Z,965
2019-05-22T13:10:20.458Z,965.1
2019-05-22T13:20:45.124Z,964.8
2019-05-22T13:30:48.611Z,965.4
2019-05-22T13:40:52.078Z,965.2
2019-05-22T13:50:55.562Z,965.6
2019-05-22T14:00:59.194Z,966.1
2019-05-22T14:11:02.813Z,966.4
2019-05-22T14:21:06.309Z,966.1
2019-05-22T14:31:09.811Z,967
2019-05-22T14:41:13.281Z,966.5
2019-05-22T14:51:16.748Z,967.4
2019-05-22T15:01:20.231Z,967.5
2019-05-22T15:11:23.685Z,967.2
2019-05-22T15:21:27.109Z,967.6
2019-05-22T15:31:30.546Z,967.6
2019-05-22T15:41:34.006Z,967.6
2019-05-22T15:51:37.533Z,967.5
2019-05-22T16:01:40.965Z,967.5
2019-05-22T16:11:44.425Z,967.6
2019-05-22T16:21:47.885Z,967.8
2019-05-22T16:31:51.353Z,967.9
2019-05-22T16:41:54.906Z,968.1
2019-05-22T16:51:58.351Z,960.8
2019-05-22T17:02:01.874Z,961
2019-05-22T17:12:06.361Z,961.5
2019-05-22T17:22:09.771Z,961.8
2019-05-22T17:32:13.512Z,961.9
2019-05-22T17:42:17.024Z,962.2
2019-05-22T17:52:20.495Z,962.7
2019-05-22T18:02:23.975Z,963.1
2019-05-22T18:12:27.421Z,963.7
2019-05-22T18:22:30.912Z,964.2
2019-05-22T18:32:34.392Z,964.5
2019-05-22T18:42:37.882Z,964.8
2019-05-22T18:52:42.020Z,965.3
2019-05-22T19:02:45.491Z,965.5
2019-05-22T19:12:48.900Z,966
2019-05-22T19:23:02.129Z,966.1
2019-05-22T19:33:05.594Z,966.6
2019-05-22T19:43:09.126Z,966.7
2019-05-22T19:53:19.931Z,967.7
2019-05-22T20:03:23.386Z,968.2
2019-05-22T20:13:26.853Z,968.1
2019-05-22T20:23:37.344Z,967.9
2019-05-22T20:33:40.932Z,968.4
2019-05-22T20:43:44.508Z,968.7
2019-05-22T20:53:55.250Z,968.9
2019-05-22T21:03:58.699Z,969.5
2019-05-22T21:14:02.163Z,969.6
2019-05-22T21:24:12.982Z,970
2019-05-22T21:34:16.435Z,963.5
2019-05-22T21:44:19.912Z,963.1
2019-05-22T21:54:23.385Z,963.5
2019-05-22T22:04:26.851Z,963.7
2019-05-22T22:14:30.315Z,963.6
2019-05-22T22:24:33.838Z,963.4
2019-05-22T22:34:37.306Z,963.7
2019-05-22T22:44:40.809Z,963.8
2019-05-22T22:54:44.342Z,963.9
2019-05-22T23:14:56.116Z,963.8
2019-05-22T23:24:59.587Z,964
2019-05-22T23:35:02.993Z,965
2019-05-22T23:45:06.454Z,964.4
2019-05-22T23:55:09.919Z,964.3
